createdAt,value
2023-04-16T00:01:32.598Z,20.15
2023-04-16T00:04:02.878Z,16.88
2023-04-16T00:06:32.465Z,15.68
2023-04-16T00:09:01.564Z,17.23
2023-04-16T00:11:30.281Z,20.05
2023-04-16T00:13:58.898Z,18.63
2023-04-16T00:16:29.190Z,19.63
2023-04-16T00:18:59.596Z,20.33
2023-04-16T00:21:27.749Z,17.65
2023-04-16T00:23:56.151Z,19.58
2023-04-16T00:26:24.357Z,18.45
2023-04-16T00:28:52.960Z,20.60
2023-04-16T00:31:29.538Z,20.27
2023-04-16T00:33:59.010Z,19.30
2023-04-16T00:36:28.336Z,15.45
2023-04-16T00:38:57.818Z,17.42
2023-04-16T00:41:26.365Z,14.63
2023-04-16T00:43:54.876Z,17.05
2023-04-16T00:46:24.775Z,15.13
2023-04-16T00:48:56.274Z,16.25
2023-04-16T00:51:24.818Z,16.73
2023-04-16T00:53:54.909Z,16.45
2023-04-16T00:56:24.223Z,17.65
2023-04-16T00:58:52.648Z,17.65
2023-04-16T01:01:21.760Z,20.95
2023-04-16T01:03:51.017Z,15.05
2023-04-16T01:06:24.384Z,15.73
2023-04-16T01:08:52.581Z,17.60
2023-04-16T01:11:21.199Z,14.77
2023-04-16T01:13:49.605Z,19.38
2023-04-16T01:16:18.988Z,12.77
2023-04-16T01:18:47.578Z,16.63
2023-04-16T01:21:17.311Z,12.20
2023-04-16T01:23:45.609Z,14.93
2023-04-16T01:26:13.946Z,14.48
2023-04-16T01:28:43.199Z,13.23
2023-04-16T01:31:11.417Z,13.80
2023-04-16T01:33:42.227Z,13.43
2023-04-16T01:36:12.960Z,14.68
2023-04-16T01:38:43.046Z,13.20
2023-04-16T01:41:11.289Z,15.20
2023-04-16T01:43:40.469Z,17.35
2023-04-16T01:46:15.231Z,15.15
2023-04-16T01:48:43.554Z,11.88
2023-04-16T01:51:11.762Z,14.10
2023-04-16T01:53:40.274Z,16.70
2023-04-16T01:56:10.013Z,17.90
2023-04-16T01:58:38.534Z,21.52
2023-04-16T02:01:08.949Z,16.55
2023-04-16T02:03:38.403Z,15.68
2023-04-16T02:06:07.115Z,17.80
2023-04-16T02:08:36.728Z,15.40
2023-04-16T02:11:05.096Z,16.80
2023-04-16T02:13:35.210Z,14.35
2023-04-16T02:16:03.946Z,13.55
2023-04-16T02:18:58.236Z,19.38
2023-04-16T02:21:28.050Z,14.70
2023-04-16T02:23:56.303Z,17.25
2023-04-16T02:26:29.902Z,13.13
2023-04-16T02:29:04.988Z,14.38
2023-04-16T02:31:40.420Z,15.32
2023-04-16T02:34:09.952Z,14.93
2023-04-16T02:36:38.272Z,13.20
2023-04-16T02:39:06.969Z,17.05
2023-04-16T02:41:35.370Z,18.45
2023-04-16T02:44:05.196Z,18.15
2023-04-16T02:46:33.283Z,18.75
2023-04-16T02:49:01.572Z,20.48
2023-04-16T02:51:31.100Z,20.33
2023-04-16T02:53:59.425Z,24.60
2023-04-16T02:56:27.607Z,20.48
2023-04-16T02:58:55.733Z,19.42
2023-04-16T03:01:25.732Z,21.58
2023-04-16T03:03:54.050Z,19.25
2023-04-16T03:06:22.189Z,20.27
2023-04-16T03:08:50.320Z,22.70
2023-04-16T03:11:18.523Z,21.33
2023-04-16T03:13:47.037Z,21.33
2023-04-16T03:16:15.804Z,22.38
2023-04-16T03:18:45.426Z,19.33
2023-04-16T03:21:13.592Z,18.90
2023-04-16T03:23:41.696Z,19.55
2023-04-16T03:26:09.819Z,22.02
2023-04-16T03:28:38.220Z,17.90
2023-04-16T03:31:06.483Z,19.10
2023-04-16T03:33:36.211Z,20.63
2023-04-16T03:36:07.285Z,20.27
2023-04-16T03:38:35.851Z,20.92
2023-04-16T03:41:04.823Z,21.42
2023-04-16T03:43:34.952Z,20.05
2023-04-16T03:46:03.377Z,19.25
2023-04-16T03:48:31.690Z,20.73
2023-04-16T03:51:00.121Z,21.00
2023-04-16T03:53:30.344Z,18.05
2023-04-16T03:55:58.636Z,20.58
2023-04-16T03:58:27.122Z,14.45
2023-04-16T04:00:56.068Z,12.32
2023-04-16T04:03:26.381Z,15.07
2023-04-16T04:05:56.000Z,14.27
2023-04-16T04:08:30.023Z,18.35
2023-04-16T04:10:58.171Z,14.50
2023-04-16T04:13:27.009Z,16.85
2023-04-16T04:15:55.716Z,15.75
2023-04-16T04:18:24.884Z,16.27
2023-04-16T04:20:53.319Z,16.02
2023-04-16T04:23:25.472Z,15.50
2023-04-16T04:25:55.071Z,18.42
2023-04-16T04:28:23.842Z,16.08
2023-04-16T04:30:54.887Z,14.55
2023-04-16T04:33:23.367Z,18.63
2023-04-16T04:35:52.400Z,17.48
2023-04-16T04:38:22.377Z,19.98
2023-04-16T04:40:51.352Z,17.83
2023-04-16T04:43:22.200Z,19.02
2023-04-16T04:45:51.661Z,18.77
2023-04-16T04:48:19.880Z,15.52
2023-04-16T04:50:50.739Z,24.58
2023-04-16T04:53:18.798Z,30.27
2023-04-16T04:55:49.220Z,38.60
2023-04-16T04:58:19.249Z,29.33
2023-04-16T05:00:48.860Z,31.95
2023-04-16T05:03:22.496Z,31.02
2023-04-16T05:05:50.797Z,30.65
2023-04-16T05:08:18.909Z,32.03
2023-04-16T05:10:47.195Z,34.67
2023-04-16T05:13:15.510Z,30.00
2023-04-16T05:15:45.424Z,32.67
2023-04-16T05:18:16.841Z,29.80
2023-04-16T05:20:45.579Z,32.75
2023-04-16T05:23:15.825Z,37.08
2023-04-16T05:25:43.959Z,38.80
2023-04-16T05:28:12.229Z,34.40
2023-04-16T05:30:40.579Z,33.38
2023-04-16T05:33:08.751Z,38.15
2023-04-16T05:35:38.488Z,39.08
2023-04-16T05:38:06.531Z,38.60
2023-04-16T05:40:35.642Z,39.88
2023-04-16T05:43:03.893Z,35.75
2023-04-16T05:45:33.816Z,37.10
2023-04-16T05:48:02.184Z,34.28
2023-04-16T05:50:30.401Z,37.83
2023-04-16T05:53:00.102Z,32.05
2023-04-16T05:55:28.285Z,37.35
2023-04-16T05:57:56.716Z,31.70
2023-04-16T06:00:25.126Z,42.90
2023-04-16T06:02:53.585Z,33.70
2023-04-16T06:05:22.233Z,39.85
2023-04-16T06:07:50.367Z,35.65
2023-04-16T06:10:20.158Z,42.75
2023-04-16T06:12:48.420Z,37.33
2023-04-16T06:15:16.956Z,38.80
2023-04-16T06:17:45.341Z,38.45
2023-04-16T06:20:14.358Z,42.30
2023-04-16T06:22:42.686Z,33.95
2023-04-16T06:25:11.292Z,37.25
2023-04-16T06:27:40.999Z,41.95
2023-04-16T06:30:13.913Z,37.90
2023-04-16T06:32:42.254Z,39.97
2023-04-16T06:35:11.092Z,34.05
2023-04-16T06:37:39.663Z,32.25
2023-04-16T06:40:08.919Z,32.30
2023-04-16T06:42:37.322Z,34.45
2023-04-16T06:45:08.552Z,37.40
2023-04-16T06:47:36.714Z,33.08
2023-04-16T06:50:05.181Z,31.63
2023-04-16T06:52:35.725Z,33.03
2023-04-16T06:55:03.947Z,33.10
2023-04-16T06:57:32.083Z,35.17
2023-04-16T07:00:00.400Z,32.95
2023-04-16T07:02:30.145Z,30.17
2023-04-16T07:04:58.362Z,33.67
2023-04-16T07:07:27.128Z,29.00
2023-04-16T07:09:55.688Z,25.02
2023-04-16T07:12:23.907Z,29.58
2023-04-16T07:14:52.131Z,27.67
2023-04-16T07:17:20.337Z,31.58
2023-04-16T07:19:49.821Z,29.27
2023-04-16T07:22:17.971Z,30.60
2023-04-16T07:24:46.360Z,25.88
2023-04-16T07:27:14.646Z,33.70
2023-04-16T07:29:42.900Z,29.85
2023-04-16T07:32:12.032Z,26.92
2023-04-16T07:34:41.893Z,28.55
2023-04-16T07:37:11.369Z,27.30
2023-04-16T07:39:40.043Z,30.48
2023-04-16T07:42:08.236Z,22.65
2023-04-16T07:44:36.434Z,27.73
2023-04-16T07:47:05.660Z,32.60
2023-04-16T07:49:34.611Z,28.88
2023-04-16T07:52:03.312Z,28.92
2023-04-16T07:54:33.223Z,27.27
2023-04-16T07:57:01.461Z,26.75
2023-04-16T07:59:29.857Z,24.15
2023-04-16T08:01:58.501Z,26.52
2023-04-16T08:04:27.368Z,22.90
2023-04-16T08:06:56.360Z,21.42
2023-04-16T08:09:27.731Z,23.10
2023-04-16T08:11:57.643Z,26.67
2023-04-16T08:14:25.963Z,23.05
2023-04-16T08:16:54.131Z,34.38
2023-04-16T08:19:22.254Z,30.35
2023-04-16T08:21:50.454Z,25.77
2023-04-16T08:24:18.621Z,21.65
2023-04-16T08:26:46.926Z,22.90
2023-04-16T08:29:16.486Z,27.33
2023-04-16T08:31:44.869Z,24.63
2023-04-16T08:34:13.405Z,23.13
2023-04-16T08:36:41.682Z,23.27
2023-04-16T08:39:10.069Z,21.60
2023-04-16T08:41:42.255Z,23.02
2023-04-16T08:44:12.779Z,23.25
2023-04-16T08:46:42.646Z,21.80
2023-04-16T08:49:18.022Z,24.27
2023-04-16T08:51:53.223Z,20.63
2023-04-16T08:54:33.326Z,20.67
2023-04-16T08:57:06.520Z,23.73
2023-04-16T08:59:35.276Z,22.38
2023-04-16T09:02:07.077Z,21.45
2023-04-16T09:04:38.532Z,22.65
2023-04-16T09:07:09.878Z,26.30
2023-04-16T09:09:39.697Z,23.95
2023-04-16T09:12:09.906Z,23.77
2023-04-16T09:14:43.730Z,24.27
2023-04-16T09:17:14.863Z,25.98
2023-04-16T09:19:43.230Z,24.15
2023-04-16T09:22:11.657Z,24.60
2023-04-16T09:24:39.864Z,25.92
2023-04-16T09:27:09.236Z,23.30
2023-04-16T09:29:38.959Z,25.63
2023-04-16T09:32:08.790Z,26.58
2023-04-16T09:34:56.088Z,24.65
2023-04-16T09:37:27.516Z,22.98
2023-04-16T09:39:58.046Z,26.08
2023-04-16T09:42:28.308Z,30.50
2023-04-16T09:44:59.883Z,25.52
2023-04-16T09:47:41.203Z,25.42
2023-04-16T09:50:17.784Z,27.60
2023-04-16T09:52:50.593Z,24.33
2023-04-16T09:55:23.992Z,28.67
2023-04-16T09:58:00.028Z,27.55
2023-04-16T10:00:30.577Z,24.83
2023-04-16T10:03:06.353Z,22.38
2023-04-16T10:05:36.736Z,26.70
2023-04-16T10:08:13.151Z,32.55
2023-04-16T10:10:42.681Z,23.30
2023-04-16T10:13:12.744Z,26.08
2023-04-16T10:15:41.817Z,23.85
2023-04-16T10:18:10.759Z,22.15
2023-04-16T10:21:04.109Z,25.73
2023-04-16T10:23:33.587Z,21.90
2023-04-16T10:26:03.502Z,29.40
2023-04-16T10:28:31.821Z,24.40
2023-04-16T10:31:01.060Z,24.42
2023-04-16T10:33:32.740Z,22.30
2023-04-16T10:36:14.139Z,22.02
2023-04-16T10:38:47.092Z,17.90
2023-04-16T10:41:15.549Z,22.85
2023-04-16T10:43:46.032Z,17.02
2023-04-16T10:46:22.210Z,21.48
2023-04-16T10:48:52.188Z,19.70
2023-04-16T10:51:31.418Z,19.92
2023-04-16T10:54:05.163Z,18.38
2023-04-16T10:56:35.045Z,19.75
2023-04-16T10:59:06.127Z,18.05
2023-04-16T11:01:35.538Z,20.52
2023-04-16T11:04:31.501Z,18.23
2023-04-16T11:07:14.890Z,16.70
2023-04-16T11:09:45.935Z,20.80
2023-04-16T11:12:16.038Z,21.42
2023-04-16T11:14:44.532Z,13.55
2023-04-16T11:17:12.525Z,17.65
2023-04-16T11:19:41.003Z,15.90
2023-04-16T11:22:14.253Z,16.95
2023-04-16T11:24:42.391Z,16.08
2023-04-16T11:27:11.245Z,17.90
2023-04-16T11:29:39.204Z,15.15
2023-04-16T11:32:07.568Z,15.20
2023-04-16T11:34:35.791Z,15.52
2023-04-16T11:37:04.176Z,14.70
2023-04-16T11:39:33.456Z,12.38
2023-04-16T11:42:01.835Z,12.48
2023-04-16T11:44:30.428Z,10.45
2023-04-16T11:46:58.723Z,10.45
2023-04-16T11:49:30.806Z,10.63
2023-04-16T11:51:59.428Z,7.85
2023-04-16T11:54:27.621Z,11.80
2023-04-16T11:56:57.300Z,10.10
2023-04-16T11:59:25.606Z,8.77
2023-04-16T12:01:55.880Z,13.75
2023-04-16T12:04:26.077Z,10.15
2023-04-16T12:07:08.005Z,9.20
2023-04-16T12:09:40.692Z,10.57
2023-04-16T12:12:30.517Z,9.65
2023-04-16T12:15:00.333Z,7.47
2023-04-16T12:17:31.563Z,10.60
2023-04-16T12:20:02.186Z,9.10
2023-04-16T12:22:31.306Z,12.45
2023-04-16T12:25:04.446Z,8.15
2023-04-16T12:27:49.041Z,7.38
2023-04-16T12:30:20.224Z,10.63
2023-04-16T12:32:50.911Z,7.38
2023-04-16T12:35:31.570Z,9.07
2023-04-16T12:37:59.806Z,9.48
2023-04-16T12:40:27.957Z,9.40
2023-04-16T12:42:59.719Z,9.15
2023-04-16T12:45:27.958Z,9.90
2023-04-16T12:47:57.843Z,12.80
2023-04-16T12:50:27.421Z,8.75
2023-04-16T12:52:59.056Z,9.18
2023-04-16T12:55:27.837Z,7.88
2023-04-16T12:57:57.913Z,9.18
2023-04-16T13:00:31.820Z,8.88
2023-04-16T13:03:06.612Z,8.32
2023-04-16T13:05:35.295Z,10.73
2023-04-16T13:08:03.488Z,11.90
2023-04-16T13:10:31.636Z,10.02
2023-04-16T13:13:01.494Z,11.18
2023-04-16T13:15:29.499Z,13.23
2023-04-16T13:17:57.875Z,11.63
2023-04-16T13:20:26.066Z,8.93
2023-04-16T13:22:55.034Z,13.15
2023-04-16T13:25:23.298Z,13.98
2023-04-16T13:27:51.494Z,13.48
2023-04-16T13:30:21.034Z,11.00
2023-04-16T13:32:49.464Z,16.48
2023-04-16T13:35:17.765Z,12.05
2023-04-16T13:37:45.858Z,12.82
2023-04-16T13:40:14.011Z,11.63
2023-04-16T13:42:42.385Z,11.82
2023-04-16T13:45:11.402Z,12.05
2023-04-16T13:47:42.635Z,15.00
2023-04-16T13:50:11.628Z,16.27
2023-04-16T13:52:39.673Z,17.65
2023-04-16T13:55:09.746Z,15.13
2023-04-16T13:57:37.936Z,13.68
2023-04-16T14:00:07.265Z,14.52
2023-04-16T14:02:35.970Z,16.05
2023-04-16T14:05:06.890Z,16.10
2023-04-16T14:07:35.037Z,13.27
2023-04-16T14:10:03.202Z,22.27
2023-04-16T14:12:31.666Z,12.93
2023-04-16T14:14:59.941Z,14.57
2023-04-16T14:17:28.333Z,15.30
2023-04-16T14:19:56.488Z,15.60
2023-04-16T14:22:26.354Z,19.63
2023-04-16T14:24:54.436Z,16.58
2023-04-16T14:27:22.701Z,16.75
2023-04-16T14:29:51.107Z,17.63
2023-04-16T14:32:19.361Z,21.02
2023-04-16T14:34:47.752Z,20.08
2023-04-16T14:37:16.948Z,22.42
2023-04-16T14:39:46.459Z,23.23
2023-04-16T14:42:15.001Z,23.65
2023-04-16T14:44:43.555Z,27.50
2023-04-16T14:47:11.636Z,25.17
2023-04-16T14:49:39.920Z,24.45
2023-04-16T14:52:08.105Z,25.92
2023-04-16T14:54:38.799Z,32.45
2023-04-16T14:57:08.548Z,26.02
2023-04-16T14:59:37.169Z,25.63
2023-04-16T15:02:05.658Z,27.42
2023-04-16T15:04:33.907Z,24.13
2023-04-16T15:07:02.304Z,26.70
2023-04-16T15:09:30.384Z,25.55
2023-04-16T15:11:59.943Z,26.85
2023-04-16T15:14:29.494Z,26.67
2023-04-16T15:16:57.646Z,27.85
2023-04-16T15:19:26.758Z,27.55
2023-04-16T15:21:55.936Z,26.67
2023-04-16T15:24:24.675Z,29.42
2023-04-16T15:26:55.237Z,27.63
2023-04-16T15:29:23.413Z,24.98
2023-04-16T15:31:53.091Z,23.38
2023-04-16T15:34:21.347Z,26.45
2023-04-16T15:36:49.515Z,33.75
2023-04-16T15:39:17.699Z,27.35
2023-04-16T15:41:59.845Z,29.10
2023-04-16T15:44:29.334Z,28.85
2023-04-16T15:46:58.938Z,29.90
2023-04-16T15:49:27.507Z,28.83
2023-04-16T15:51:56.437Z,28.05
2023-04-16T15:54:24.791Z,29.65
2023-04-16T15:56:52.834Z,32.75
2023-04-16T15:59:20.916Z,32.03
2023-04-16T16:01:49.217Z,31.38
2023-04-16T16:04:18.873Z,29.20
2023-04-16T16:06:47.155Z,32.47
2023-04-16T16:09:15.295Z,34.45
2023-04-16T16:11:45.866Z,32.78
2023-04-16T16:14:14.915Z,30.17
2023-04-16T16:16:43.903Z,36.45
2023-04-16T16:19:12.415Z,33.55
2023-04-16T16:21:42.129Z,31.48
2023-04-16T16:24:10.640Z,33.75
2023-04-16T16:26:38.653Z,33.03
2023-04-16T16:29:07.244Z,32.15
2023-04-16T16:31:35.338Z,34.65
2023-04-16T16:34:03.422Z,35.28
2023-04-16T16:36:32.403Z,33.22
2023-04-16T16:39:03.286Z,35.80
2023-04-16T16:41:31.834Z,34.17
2023-04-16T16:44:00.146Z,37.85
2023-04-16T16:46:28.342Z,36.15
2023-04-16T16:48:56.464Z,35.90
2023-04-16T16:51:24.621Z,40.90
2023-04-16T16:53:52.970Z,35.60
2023-04-16T16:56:22.985Z,37.03
2023-04-16T16:58:51.083Z,33.95
2023-04-16T17:01:19.479Z,38.88
2023-04-16T17:03:47.671Z,37.97
2023-04-16T17:06:16.119Z,41.00
2023-04-16T17:08:44.264Z,40.38
2023-04-16T17:11:12.368Z,37.47
2023-04-16T17:13:41.949Z,40.88
2023-04-16T17:16:10.241Z,43.58
2023-04-16T17:18:38.523Z,41.45
2023-04-16T17:21:06.635Z,39.45
2023-04-16T17:23:35.208Z,42.22
2023-04-16T17:26:03.362Z,41.97
2023-04-16T17:28:31.886Z,37.80
2023-04-16T17:31:03.773Z,41.53
2023-04-16T17:33:37.587Z,37.33
2023-04-16T17:36:14.712Z,41.38
2023-04-16T17:38:45.494Z,39.88
2023-04-16T17:41:13.739Z,33.20
2023-04-16T17:43:44.438Z,34.50
2023-04-16T17:46:14.922Z,34.63
2023-04-16T17:48:50.323Z,37.67
2023-04-16T17:51:18.721Z,38.80
2023-04-16T17:53:46.927Z,31.85
2023-04-16T17:56:15.528Z,34.13
2023-04-16T17:58:45.998Z,37.60
2023-04-16T18:01:18.065Z,32.83
2023-04-16T18:03:50.710Z,40.95
2023-04-16T18:06:19.936Z,33.65
2023-04-16T18:08:51.632Z,40.70
2023-04-16T18:11:28.441Z,36.55
2023-04-16T18:14:06.550Z,39.45
2023-04-16T18:16:37.571Z,31.92
2023-04-16T18:19:09.163Z,32.63
2023-04-16T18:21:37.537Z,33.40
2023-04-16T18:24:43.218Z,32.55
2023-04-16T18:27:19.163Z,37.10
2023-04-16T18:29:54.880Z,32.20
2023-04-16T18:32:25.386Z,37.65
2023-04-16T18:34:57.313Z,35.83
2023-04-16T18:37:29.251Z,37.38
2023-04-16T18:40:17.343Z,28.63
2023-04-16T18:42:45.776Z,37.65
2023-04-16T18:45:21.005Z,36.58
2023-04-16T18:47:51.331Z,35.92
2023-04-16T18:50:22.235Z,34.08
2023-04-16T18:52:50.346Z,39.15
2023-04-16T18:55:19.023Z,34.83
2023-04-16T18:57:47.132Z,40.42
2023-04-16T19:00:19.981Z,32.25
2023-04-16T19:02:48.556Z,37.28
2023-04-16T19:05:18.729Z,34.35
2023-04-16T19:07:46.745Z,34.80
2023-04-16T19:10:14.826Z,37.22
2023-04-16T19:12:42.841Z,39.65
2023-04-16T19:15:11.731Z,39.63
2023-04-16T19:17:40.284Z,38.45
2023-04-16T19:20:11.446Z,39.75
2023-04-16T19:22:41.287Z,32.47
2023-04-16T19:25:10.455Z,39.13
2023-04-16T19:27:38.755Z,32.53
2023-04-16T19:30:08.450Z,35.70
2023-04-16T19:32:37.885Z,36.63
2023-04-16T19:35:07.145Z,35.45
2023-04-16T19:37:35.371Z,32.80
2023-04-16T19:40:06.065Z,34.53
2023-04-16T19:42:34.381Z,34.47
2023-04-16T19:45:03.127Z,32.17
2023-04-16T19:47:32.216Z,33.15
2023-04-16T19:50:00.575Z,37.08
2023-04-16T19:52:29.224Z,35.30
2023-04-16T19:54:57.608Z,34.75
2023-04-16T19:57:27.139Z,34.15
2023-04-16T19:59:55.423Z,34.80
2023-04-16T20:02:23.513Z,33.67
2023-04-16T20:04:53.094Z,36.78
2023-04-16T20:07:23.183Z,34.70
2023-04-16T20:09:51.491Z,35.38
2023-04-16T20:12:19.765Z,34.60
2023-04-16T20:14:49.588Z,37.83
2023-04-16T20:17:19.747Z,31.17
2023-04-16T20:19:51.448Z,34.85
2023-04-16T20:22:19.774Z,32.35
2023-04-16T20:24:48.321Z,33.60
2023-04-16T20:27:16.838Z,32.97
2023-04-16T20:29:45.180Z,35.35
2023-04-16T20:32:14.624Z,30.33
2023-04-16T20:34:42.940Z,42.92
2023-04-16T20:37:11.612Z,36.08
2023-04-16T20:39:42.696Z,31.27
2023-04-16T20:42:11.352Z,29.13
2023-04-16T20:44:41.317Z,35.50
2023-04-16T20:47:09.870Z,37.88
2023-04-16T20:49:40.327Z,32.38
2023-04-16T20:52:08.669Z,37.03
2023-04-16T20:54:36.848Z,40.40
2023-04-16T20:57:05.687Z,29.10
2023-04-16T20:59:34.884Z,33.67
2023-04-16T21:02:03.521Z,31.30
2023-04-16T21:04:31.975Z,32.85
2023-04-16T21:07:03.242Z,34.05
2023-04-16T21:09:31.811Z,34.67
2023-04-16T21:12:00.146Z,32.63
2023-04-16T21:14:28.559Z,31.05
2023-04-16T21:16:56.682Z,30.83
2023-04-16T21:19:24.815Z,33.53
2023-04-16T21:21:59.139Z,27.70
2023-04-16T21:24:28.672Z,34.20
2023-04-16T21:27:00.242Z,35.60
2023-04-16T21:29:28.453Z,30.42
2023-04-16T21:31:56.735Z,32.03
2023-04-16T21:34:25.423Z,33.45
2023-04-16T21:36:53.595Z,33.78
2023-04-16T21:39:22.108Z,32.72
2023-04-16T21:41:51.581Z,32.00
2023-04-16T21:44:21.150Z,39.42
2023-04-16T21:46:49.905Z,30.50
2023-04-16T21:49:18.156Z,33.33
2023-04-16T21:51:47.123Z,34.97
2023-04-16T21:54:17.912Z,34.63
2023-04-16T21:56:49.133Z,36.25
2023-04-16T21:59:18.724Z,35.20
2023-04-16T22:01:47.075Z,35.55
2023-04-16T22:04:15.683Z,37.40
2023-04-16T22:06:46.580Z,37.55
2023-04-16T22:09:15.689Z,40.45
2023-04-16T22:11:46.520Z,34.97
2023-04-16T22:14:14.606Z,39.20
2023-04-16T22:16:44.910Z,34.95
2023-04-16T22:19:13.583Z,33.78
2023-04-16T22:21:41.861Z,32.30
2023-04-16T22:24:10.147Z,37.50
2023-04-16T22:26:38.613Z,38.85
2023-04-16T22:29:07.111Z,38.08
2023-04-16T22:31:35.340Z,36.17
2023-04-16T22:34:05.021Z,37.92
2023-04-16T22:36:33.360Z,37.45
2023-04-16T22:39:01.685Z,33.80
2023-04-16T22:41:29.852Z,30.83
2023-04-16T22:43:58.002Z,39.60
2023-04-16T22:46:27.410Z,38.40
2023-04-16T22:48:55.574Z,33.55
2023-04-16T22:51:25.392Z,36.03
2023-04-16T22:53:55.577Z,36.38
2023-04-16T22:56:28.778Z,34.35
2023-04-16T22:58:56.914Z,36.38
2023-04-16T23:01:25.587Z,34.22
2023-04-16T23:03:53.863Z,39.85
2023-04-16T23:06:22.307Z,41.58
2023-04-16T23:08:51.936Z,36.05
2023-04-16T23:11:20.025Z,38.97
2023-04-16T23:13:48.018Z,35.08
2023-04-16T23:16:17.410Z,38.55
2023-04-16T23:18:45.505Z,36.00
2023-04-16T23:21:13.779Z,35.33
2023-04-16T23:23:41.858Z,35.05
2023-04-16T23:26:14.072Z,36.40
2023-04-16T23:28:42.161Z,40.80
2023-04-16T23:31:10.653Z,36.15
2023-04-16T23:33:40.948Z,36.65
2023-04-16T23:36:10.158Z,35.88
2023-04-16T23:38:40.561Z,39.13
2023-04-16T23:41:08.653Z,37.30
2023-04-16T23:43:40.096Z,37.25
2023-04-16T23:46:08.499Z,39.25
2023-04-16T23:48:36.836Z,39.67
2023-04-16T23:51:07.758Z,37.58
2023-04-16T23:53:36.465Z,40.10
2023-04-16T23:56:04.604Z,35.90
2023-04-16T23:58:32.892Z,35.25
